createdAt,value
2022-09-12T00:01:41.129Z,99606.31
2022-09-12T00:04:14.072Z,99607.84
2022-09-12T00:06:45.972Z,99602.55
2022-09-12T00:09:18.238Z,99604.06
2022-09-12T00:11:50.146Z,99604.24
2022-09-12T00:14:22.345Z,99609.79
2022-09-12T00:16:54.562Z,99608.52
2022-09-12T00:19:26.840Z,99608.16
2022-09-12T00:21:59.008Z,99607.24
2022-09-12T00:24:30.948Z,99605.34
2022-09-12T00:27:02.776Z,99607.31
2022-09-12T00:29:34.721Z,99602.45
2022-09-12T00:32:07.068Z,99606.54
2022-09-12T00:34:39.297Z,99607.33
2022-09-12T00:37:11.325Z,99605.81
2022-09-12T00:39:43.250Z,99603.59
2022-09-12T00:42:15.849Z,99604.31
2022-09-12T00:44:51.216Z,99600.05
2022-09-12T00:47:28.498Z,99600.15
2022-09-12T00:50:04.904Z,99601.80
2022-09-12T00:52:43.098Z,99600.17
2022-09-12T00:55:18.584Z,99604.78
2022-09-12T00:57:55.469Z,99603.45
2022-09-12T01:00:27.212Z,99607.98
2022-09-12T01:03:02.094Z,99604.02
2022-09-12T01:05:36.214Z,99602.88
2022-09-12T01:08:09.124Z,99608.50
2022-09-12T01:10:42.516Z,99611.99
2022-09-12T01:13:14.451Z,99614.42
2022-09-12T01:15:46.687Z,99616.21
2022-09-12T01:18:27.339Z,99612.77
2022-09-12T01:21:12.326Z,99619.70
2022-09-12T01:24:27.451Z,99625.73
2022-09-12T01:27:20.413Z,99626.75
2022-09-12T01:30:05.927Z,99625.19
2022-09-12T01:32:56.270Z,99627.30
2022-09-12T01:35:33.779Z,99625.40
2022-09-12T01:38:16.492Z,99623.20
2022-09-12T01:41:00.570Z,99626.02
2022-09-12T01:43:38.768Z,99625.33
2022-09-12T01:46:17.449Z,99623.31
2022-09-12T01:48:57.460Z,99627.09
2022-09-12T01:51:34.336Z,99629.08
2022-09-12T01:54:11.903Z,99635.52
2022-09-12T01:56:45.927Z,99635.48
2022-09-12T01:59:25.172Z,99636.15
2022-09-12T02:02:03.723Z,99641.83
2022-09-12T02:04:41.354Z,99641.63
2022-09-12T02:07:18.222Z,99638.71
2022-09-12T02:09:55.692Z,99634.17
2022-09-12T02:12:32.851Z,99632.60
2022-09-12T02:15:08.996Z,99629.83
2022-09-12T02:17:43.799Z,99635.02
2022-09-12T02:20:44.432Z,99633.23
2022-09-12T02:23:17.829Z,99632.23
2022-09-12T02:25:53.615Z,99636.99
2022-09-12T02:28:29.989Z,99635.35
2022-09-12T02:31:10.780Z,99639.53
2022-09-12T02:33:50.097Z,99638.95
2022-09-12T02:36:34.558Z,99642.73
2022-09-12T02:39:07.402Z,99643.81
2022-09-12T02:41:39.385Z,99642.27
2022-09-12T02:44:11.330Z,99649.11
2022-09-12T02:46:48.335Z,99649.60
2022-09-12T02:49:18.704Z,99651.64
2022-09-12T02:51:51.344Z,99652.26
2022-09-12T02:54:25.122Z,99652.98
2022-09-12T02:56:57.046Z,99657.15
2022-09-12T02:59:29.244Z,99658.91
2022-09-12T03:02:16.835Z,99658.27
2022-09-12T03:05:09.660Z,99654.70
2022-09-12T03:08:02.281Z,99657.04
2022-09-12T03:10:43.058Z,99661.27
2022-09-12T03:13:24.676Z,99664.75
2022-09-12T03:16:11.492Z,99661.96
2022-09-12T03:18:56.720Z,99662.11
2022-09-12T03:21:33.538Z,99665.09
2022-09-12T03:24:19.202Z,99670.14
2022-09-12T03:26:56.672Z,99677.05
2022-09-12T03:29:31.038Z,99673.77
2022-09-12T03:32:03.055Z,99681.16
2022-09-12T03:34:35.121Z,99682.77
2022-09-12T03:37:07.187Z,99682.33
2022-09-12T03:39:39.090Z,99687.95
2022-09-12T03:42:11.159Z,99696.37
2022-09-12T03:44:42.923Z,99696.42
2022-09-12T03:47:14.683Z,99698.20
2022-09-12T03:49:46.756Z,99701.30
2022-09-12T03:52:18.634Z,99704.11
2022-09-12T03:54:50.602Z,99704.56
2022-09-12T03:57:22.480Z,99704.48
2022-09-12T03:59:54.331Z,99699.98
2022-09-12T04:02:26.276Z,99707.65
2022-09-12T04:04:58.098Z,99707.14
2022-09-12T04:07:30.347Z,99704.81
2022-09-12T04:10:02.196Z,99711.38
2022-09-12T04:12:35.602Z,99713.32
2022-09-12T04:15:09.100Z,99714.73
2022-09-12T04:17:40.947Z,99708.70
2022-09-12T04:20:13.304Z,99715.93
2022-09-12T04:22:45.107Z,99716.48
2022-09-12T04:25:17.380Z,99713.59
2022-09-12T04:27:49.250Z,99715.00
2022-09-12T04:30:21.565Z,99717.98
2022-09-12T04:32:53.492Z,99720.77
2022-09-12T04:35:25.304Z,99729.83
2022-09-12T04:37:57.166Z,99733.85
2022-09-12T04:40:30.153Z,99726.78
2022-09-12T04:43:02.158Z,99722.22
2022-09-12T04:45:34.397Z,99721.50
2022-09-12T04:48:06.504Z,99725.06
2022-09-12T04:50:38.804Z,99729.36
2022-09-12T04:53:11.210Z,99730.66
2022-09-12T04:55:45.347Z,99733.34
2022-09-12T04:58:17.410Z,99739.13
2022-09-12T05:00:49.222Z,99736.95
2022-09-12T05:03:21.146Z,99741.86
2022-09-12T05:05:56.350Z,99740.67
2022-09-12T05:08:29.384Z,99741.72
2022-09-12T05:11:06.023Z,99742.41
2022-09-12T05:13:37.994Z,99744.55
2022-09-12T05:16:12.808Z,99745.30
2022-09-12T05:18:45.610Z,99751.39
2022-09-12T05:21:20.843Z,99751.39
2022-09-12T05:23:55.444Z,99757.44
2022-09-12T05:26:27.520Z,99756.52
2022-09-12T05:28:59.363Z,99757.09
2022-09-12T05:31:31.297Z,99759.42
2022-09-12T05:34:04.700Z,99760.59
2022-09-12T05:36:38.478Z,99757.22
2022-09-12T05:39:10.480Z,99759.75
2022-09-12T05:41:42.482Z,99764.21
2022-09-12T05:44:15.753Z,99763.25
2022-09-12T05:46:51.298Z,99768.17
2022-09-12T05:49:23.258Z,99766.86
2022-09-12T05:51:55.208Z,99771.56
2022-09-12T05:54:31.397Z,99771.18
2022-09-12T05:57:04.001Z,99769.54
2022-09-12T05:59:36.136Z,99764.45
2022-09-12T06:02:08.257Z,99765.94
2022-09-12T06:04:41.036Z,99767.55
2022-09-12T06:07:13.446Z,99766.54
2022-09-12T06:09:45.753Z,99764.33
2022-09-12T06:12:17.652Z,99767.83
2022-09-12T06:14:49.662Z,99765.01
2022-09-12T06:17:22.337Z,99765.81
2022-09-12T06:19:54.191Z,99764.83
2022-09-12T06:22:26.234Z,99761.55
2022-09-12T06:24:58.310Z,99761.64
2022-09-12T06:27:31.842Z,99764.34
2022-09-12T06:30:03.962Z,99766.19
2022-09-12T06:32:38.881Z,99766.83
2022-09-12T06:35:12.245Z,99766.80
2022-09-12T06:37:46.836Z,99768.34
2022-09-12T06:40:18.737Z,99775.91
2022-09-12T06:42:51.014Z,99777.08
2022-09-12T06:45:36.972Z,99776.01
2022-09-12T06:48:08.750Z,99777.54
2022-09-12T06:50:40.853Z,99779.66
2022-09-12T06:53:12.714Z,99778.60
2022-09-12T06:55:44.696Z,99774.64
2022-09-12T06:58:16.577Z,99778.33
2022-09-12T07:00:48.473Z,99776.21
2022-09-12T07:03:20.616Z,99775.46
2022-09-12T07:05:52.755Z,99776.80
2022-09-12T07:08:24.828Z,99779.10
2022-09-12T07:10:56.651Z,99778.61
2022-09-12T07:13:28.578Z,99780.66
2022-09-12T07:16:04.672Z,99784.73
2022-09-12T07:18:38.107Z,99784.04
2022-09-12T07:21:14.787Z,99786.33
2022-09-12T07:23:47.771Z,99792.78
2022-09-12T07:26:20.409Z,99795.11
2022-09-12T07:29:07.941Z,99799.55
2022-09-12T07:31:48.369Z,99800.73
2022-09-12T07:34:20.253Z,99806.13
2022-09-12T07:36:52.319Z,99810.85
2022-09-12T07:39:24.145Z,99814.27
2022-09-12T07:41:56.114Z,99817.80
2022-09-12T07:44:28.272Z,99816.80
2022-09-12T07:47:00.205Z,99818.54
2022-09-12T07:49:32.106Z,99822.65
2022-09-12T07:52:04.621Z,99822.16
2022-09-12T07:54:36.724Z,99824.90
2022-09-12T07:57:08.748Z,99823.92
2022-09-12T07:59:52.395Z,99828.11
2022-09-12T08:02:25.710Z,99827.98
2022-09-12T08:04:57.720Z,99831.91
2022-09-12T08:07:29.561Z,99831.30
2022-09-12T08:10:01.670Z,99834.98
2022-09-12T08:12:34.759Z,99834.08
2022-09-12T08:15:07.488Z,99836.13
2022-09-12T08:17:39.675Z,99837.62
2022-09-12T08:20:12.243Z,99837.04
2022-09-12T08:22:44.328Z,99837.08
2022-09-12T08:25:16.450Z,99838.86
2022-09-12T08:27:48.411Z,99839.73
2022-09-12T08:30:20.599Z,99837.88
2022-09-12T08:32:52.724Z,99838.34
2022-09-12T08:35:24.550Z,99838.24
2022-09-12T08:37:56.578Z,99839.41
2022-09-12T08:40:28.601Z,99838.90
2022-09-12T08:43:11.373Z,99838.73
2022-09-12T08:45:49.956Z,99837.18
2022-09-12T08:48:22.401Z,99839.31
2022-09-12T08:50:55.045Z,99837.96
2022-09-12T08:53:30.238Z,99836.97
2022-09-12T08:56:03.875Z,99840.73
2022-09-12T08:58:40.791Z,99845.02
2022-09-12T09:01:17.161Z,99841.03
2022-09-12T09:04:05.988Z,99845.69
2022-09-12T09:06:54.181Z,99847.89
2022-09-12T09:09:36.703Z,99847.64
2022-09-12T09:12:20.015Z,99850.41
2022-09-12T09:15:09.378Z,99849.02
2022-09-12T09:17:44.503Z,99848.59
2022-09-12T09:20:25.110Z,99853.23
2022-09-12T09:23:01.882Z,99852.23
2022-09-12T09:25:43.750Z,99857.93
2022-09-12T09:28:22.726Z,99855.40
2022-09-12T09:30:55.672Z,99856.84
2022-09-12T09:33:32.439Z,99852.56
2022-09-12T09:36:14.880Z,99857.04
2022-09-12T09:38:51.620Z,99861.32
2022-09-12T09:41:51.540Z,99858.00
2022-09-12T09:44:23.765Z,99861.83
2022-09-12T09:46:59.252Z,99862.80
2022-09-12T09:49:34.823Z,99865.00
2022-09-12T09:52:09.592Z,99861.52
2022-09-12T09:54:46.041Z,99860.73
2022-09-12T09:57:41.360Z,99864.08
2022-09-12T10:00:34.635Z,99869.20
2022-09-12T10:03:23.297Z,99867.88
2022-09-12T10:05:58.351Z,99870.36
2022-09-12T10:08:32.203Z,99873.19
2022-09-12T10:11:07.397Z,99877.27
2022-09-12T10:13:43.009Z,99877.84
2022-09-12T10:16:23.644Z,99883.13
2022-09-12T10:18:57.131Z,99886.97
2022-09-12T10:21:41.385Z,99888.56
2022-09-12T10:24:25.310Z,99894.34
2022-09-12T10:27:07.097Z,99896.33
2022-09-12T10:29:47.820Z,99895.88
2022-09-12T10:32:30.974Z,99897.02
2022-09-12T10:35:07.595Z,99901.30
2022-09-12T10:37:52.358Z,99903.86
2022-09-12T10:40:27.783Z,99904.64
2022-09-12T10:43:02.697Z,99906.94
2022-09-12T10:45:36.630Z,99909.44
2022-09-12T10:48:29.279Z,99907.89
2022-09-12T10:51:02.227Z,99907.69
2022-09-12T10:53:41.612Z,99906.63
2022-09-12T10:56:16.232Z,99908.90
2022-09-12T10:59:19.924Z,99911.85
2022-09-12T11:02:01.175Z,99916.46
2022-09-12T11:04:48.567Z,99915.36
2022-09-12T11:07:47.528Z,99915.95
2022-09-12T11:10:38.787Z,99920.27
2022-09-12T11:13:26.475Z,99917.67
2022-09-12T11:16:18.659Z,99915.28
2022-09-12T11:19:11.963Z,99915.59
2022-09-12T11:21:59.144Z,99915.38
2022-09-12T11:24:45.909Z,99917.10
2022-09-12T11:27:33.376Z,99914.20
2022-09-12T11:30:10.846Z,99915.09
2022-09-12T11:33:05.974Z,99913.41
2022-09-12T11:35:44.245Z,99914.48
2022-09-12T11:38:47.691Z,99913.73
2022-09-12T11:41:26.203Z,99915.00
2022-09-12T11:44:04.333Z,99913.98
2022-09-12T11:46:38.232Z,99915.20
2022-09-12T11:49:22.149Z,99915.75
2022-09-12T11:51:59.255Z,99917.59
2022-09-12T11:54:34.133Z,99916.73
2022-09-12T11:57:16.082Z,99917.61
2022-09-12T11:59:53.129Z,99918.33
2022-09-12T12:02:29.418Z,99923.44
2022-09-12T12:05:17.391Z,99925.79
2022-09-12T12:07:55.713Z,99925.88
2022-09-12T12:10:36.968Z,99922.80
2022-09-12T12:13:18.812Z,99923.76
2022-09-12T12:15:54.725Z,99922.85
2022-09-12T12:18:28.452Z,99920.37
2022-09-12T12:21:32.512Z,99919.82
2022-09-12T12:24:19.138Z,99920.63
2022-09-12T12:27:03.352Z,99921.67
2022-09-12T12:29:46.611Z,99922.02
2022-09-12T12:32:28.491Z,99921.94
2022-09-12T12:35:37.105Z,99926.91
2022-09-12T12:38:29.982Z,99925.12
2022-09-12T12:41:32.296Z,99925.73
2022-09-12T12:44:37.597Z,99928.94
2022-09-12T12:47:19.901Z,99932.79
2022-09-12T12:49:59.829Z,99932.56
2022-09-12T12:52:42.725Z,99934.53
2022-09-12T12:55:20.619Z,99936.67
2022-09-12T12:57:55.025Z,99939.09
2022-09-12T13:00:37.230Z,99935.82
2022-09-12T13:03:25.366Z,99937.67
2022-09-12T13:06:03.428Z,99937.27
2022-09-12T13:08:37.393Z,99935.56
2022-09-12T13:11:13.578Z,99940.23
2022-09-12T13:13:51.525Z,99940.67
2022-09-12T13:16:35.571Z,99938.75
2022-09-12T13:19:17.983Z,99939.13
2022-09-12T13:22:01.150Z,99939.49
2022-09-12T13:24:33.567Z,99936.92
2022-09-12T13:27:16.658Z,99937.45
2022-09-12T13:29:48.627Z,99940.36
2022-09-12T13:32:20.890Z,99944.63
2022-09-12T13:35:09.367Z,99945.89
2022-09-12T13:37:51.527Z,99952.96
2022-09-12T13:40:34.866Z,99948.92
2022-09-12T13:43:16.877Z,99946.61
2022-09-12T13:45:50.796Z,99944.28
2022-09-12T13:48:25.727Z,99943.92
2022-09-12T13:51:01.817Z,99943.46
2022-09-12T13:53:42.432Z,99942.41
2022-09-12T13:56:19.789Z,99942.71
2022-09-12T13:58:57.684Z,99939.23
2022-09-12T14:01:41.020Z,99939.63
2022-09-12T14:04:42.250Z,99935.81
2022-09-12T14:07:20.266Z,99937.27
2022-09-12T14:09:59.004Z,99935.69
2022-09-12T14:12:34.897Z,99940.31
2022-09-12T14:15:12.103Z,99939.49
2022-09-12T14:17:52.789Z,99940.65
2022-09-12T14:20:25.936Z,99941.32
2022-09-12T14:23:00.680Z,99935.84
2022-09-12T14:25:37.323Z,99931.45
2022-09-12T14:28:14.749Z,99933.00
2022-09-12T14:31:01.675Z,99936.05
2022-09-12T14:33:48.333Z,99937.31
2022-09-12T14:36:24.930Z,99929.12
2022-09-12T14:39:01.052Z,99932.77
2022-09-12T14:41:37.466Z,99930.96
2022-09-12T14:44:16.670Z,99929.13
2022-09-12T14:46:50.252Z,99923.61
2022-09-12T14:49:28.033Z,99928.77
2022-09-12T14:52:01.561Z,99928.21
2022-09-12T14:54:42.896Z,99926.39
2022-09-12T14:57:39.433Z,99932.21
2022-09-12T15:00:26.506Z,99932.05
2022-09-12T15:03:18.351Z,99933.18
2022-09-12T15:05:53.169Z,99931.86
2022-09-12T15:08:25.734Z,99934.42
2022-09-12T15:10:58.699Z,99935.27
2022-09-12T15:13:40.003Z,99938.45
2022-09-12T15:16:13.973Z,99935.92
2022-09-12T15:18:46.217Z,99941.71
2022-09-12T15:21:20.586Z,99945.27
2022-09-12T15:23:53.936Z,99948.32
2022-09-12T15:26:31.686Z,99948.04
2022-09-12T15:29:04.196Z,99950.48
2022-09-12T15:31:36.161Z,99949.45
2022-09-12T15:34:08.176Z,99953.10
2022-09-12T15:36:40.168Z,99954.89
2022-09-12T15:39:13.500Z,99954.30
2022-09-12T15:41:47.493Z,99955.02
2022-09-12T15:44:20.236Z,99957.46
2022-09-12T15:46:52.127Z,99958.52
2022-09-12T15:49:23.935Z,99957.89
2022-09-12T15:51:55.797Z,99961.33
2022-09-12T15:54:27.793Z,99961.26
2022-09-12T15:57:02.275Z,99958.98
2022-09-12T15:59:34.267Z,99961.85
2022-09-12T16:02:06.536Z,99962.44
2022-09-12T16:04:38.885Z,99958.24
2022-09-12T16:07:10.739Z,99958.85
2022-09-12T16:09:42.698Z,99959.90
2022-09-12T16:12:14.479Z,99959.91
2022-09-12T16:14:46.288Z,99963.05
2022-09-12T16:17:18.235Z,99964.86
2022-09-12T16:19:50.361Z,99966.46
2022-09-12T16:22:22.407Z,99961.85
2022-09-12T16:24:54.281Z,99964.24
2022-09-12T16:27:26.287Z,99958.23
2022-09-12T16:29:58.290Z,99961.83
2022-09-12T16:32:30.219Z,99960.48
2022-09-12T16:35:02.467Z,99956.70
2022-09-12T16:37:35.661Z,99956.39
2022-09-12T16:40:09.868Z,99953.50
2022-09-12T16:42:43.790Z,99957.58
2022-09-12T16:45:16.204Z,99954.80
2022-09-12T16:47:48.168Z,99958.80
2022-09-12T16:50:20.229Z,99958.05
2022-09-12T16:52:52.362Z,99961.52
2022-09-12T16:55:24.319Z,99960.97
2022-09-12T16:57:56.308Z,99960.84
2022-09-12T17:00:28.217Z,99966.55
2022-09-12T17:03:01.663Z,99966.19
2022-09-12T17:05:33.876Z,99967.00
2022-09-12T17:08:05.975Z,99970.70
2022-09-12T17:10:41.888Z,99971.27
2022-09-12T17:13:13.788Z,99969.81
2022-09-12T17:15:45.726Z,99971.92
2022-09-12T17:18:17.674Z,99973.36
2022-09-12T17:20:49.606Z,99972.02
2022-09-12T17:23:21.545Z,99974.27
2022-09-12T17:25:54.122Z,99972.15
2022-09-12T17:28:26.042Z,99978.52
2022-09-12T17:31:02.744Z,99977.56
2022-09-12T17:33:35.743Z,99973.02
2022-09-12T17:36:11.184Z,99971.29
2022-09-12T17:38:43.652Z,99973.52
2022-09-12T17:41:18.618Z,99979.11
2022-09-12T17:43:53.319Z,99976.59
2022-09-12T17:46:26.931Z,99975.33
2022-09-12T17:49:00.992Z,99975.48
2022-09-12T17:51:33.597Z,99979.11
2022-09-12T17:54:08.442Z,99982.03
2022-09-12T17:56:42.961Z,99980.02
2022-09-12T17:59:18.491Z,99979.38
2022-09-12T18:02:08.841Z,99972.53
2022-09-12T18:04:41.773Z,99975.35
2022-09-12T18:07:14.245Z,99973.00
2022-09-12T18:09:46.854Z,99971.46
2022-09-12T18:12:20.112Z,99974.33
2022-09-12T18:14:52.226Z,99975.75
2022-09-12T18:17:24.385Z,99975.52
2022-09-12T18:19:56.280Z,99975.06
2022-09-12T18:22:28.228Z,99979.98
2022-09-12T18:25:00.153Z,99978.77
2022-09-12T18:27:32.071Z,99971.66
2022-09-12T18:30:20.738Z,99975.91
2022-09-12T18:32:54.009Z,99975.27
2022-09-12T18:35:26.028Z,99973.36
2022-09-12T18:37:58.147Z,99971.67
2022-09-12T18:40:30.235Z,99970.70
2022-09-12T18:43:02.166Z,99978.29
2022-09-12T18:45:34.580Z,99986.59
2022-09-12T18:48:06.820Z,99983.89
2022-09-12T18:50:38.625Z,99981.86
2022-09-12T18:53:10.948Z,99977.58
2022-09-12T18:55:43.283Z,99976.27
2022-09-12T18:58:15.261Z,99978.45
2022-09-12T19:00:49.202Z,99979.16
2022-09-12T19:03:22.492Z,99981.37
2022-09-12T19:05:54.635Z,99982.23
2022-09-12T19:08:26.800Z,99982.21
2022-09-12T19:10:59.538Z,99982.39
2022-09-12T19:13:31.639Z,99984.31
2022-09-12T19:16:05.388Z,99984.52
2022-09-12T19:18:38.061Z,99988.98
2022-09-12T19:21:13.807Z,99987.87
2022-09-12T19:23:46.797Z,99983.77
2022-09-12T19:26:20.801Z,99980.48
2022-09-12T19:28:53.378Z,99979.65
2022-09-12T19:31:26.752Z,99976.42
2022-09-12T19:34:03.432Z,99975.13
2022-09-12T19:36:45.934Z,99974.46
2022-09-12T19:39:20.758Z,99969.84
2022-09-12T19:41:53.927Z,99969.90
2022-09-12T19:44:27.677Z,99968.89
2022-09-12T19:46:59.656Z,99971.25
2022-09-12T19:49:31.598Z,99968.48
2022-09-12T19:52:03.956Z,99962.86
2022-09-12T19:54:35.899Z,99961.95
2022-09-12T19:57:07.907Z,99959.44
2022-09-12T19:59:40.656Z,99956.56
2022-09-12T20:02:12.712Z,99958.09
2022-09-12T20:04:44.602Z,99961.59
2022-09-12T20:07:16.561Z,99957.89
2022-09-12T20:09:48.910Z,99958.67
2022-09-12T20:12:21.023Z,99957.87
2022-09-12T20:14:53.045Z,99951.36
2022-09-12T20:17:25.045Z,99952.52
2022-09-12T20:19:57.139Z,99954.44
2022-09-12T20:22:29.131Z,99950.73
2022-09-12T20:25:00.975Z,99956.80
2022-09-12T20:27:32.905Z,99957.27
2022-09-12T20:30:05.122Z,99956.36
2022-09-12T20:32:37.709Z,99957.14
2022-09-12T20:35:11.310Z,99959.84
2022-09-12T20:37:43.088Z,99955.02
2022-09-12T20:40:15.294Z,99952.79
2022-09-12T20:42:47.333Z,99949.73
2022-09-12T20:45:19.431Z,99953.43
2022-09-12T20:47:51.297Z,99952.63
2022-09-12T20:50:24.688Z,99950.70
2022-09-12T20:52:56.505Z,99956.33
2022-09-12T20:55:28.354Z,99956.70
2022-09-12T20:58:00.633Z,99951.77
2022-09-12T21:00:32.610Z,99954.65
2022-09-12T21:03:04.858Z,99952.48
2022-09-12T21:05:37.083Z,99954.14
2022-09-12T21:08:08.988Z,99948.70
2022-09-12T21:10:41.572Z,99953.36
2022-09-12T21:13:14.689Z,99952.98
2022-09-12T21:15:46.744Z,99950.83
2022-09-12T21:18:18.564Z,99949.52
2022-09-12T21:20:57.967Z,99952.05
2022-09-12T21:23:31.636Z,99953.35
2022-09-12T21:26:05.053Z,99957.67
2022-09-12T21:28:37.621Z,99956.48
2022-09-12T21:31:12.041Z,99958.98
2022-09-12T21:33:45.004Z,99959.77
2022-09-12T21:36:17.113Z,99958.59
2022-09-12T21:38:48.991Z,99956.19
2022-09-12T21:41:20.976Z,99954.84
2022-09-12T21:43:53.310Z,99953.27
2022-09-12T21:46:25.341Z,99949.09
2022-09-12T21:48:57.274Z,99953.12
2022-09-12T21:51:29.131Z,99952.95
2022-09-12T21:54:01.093Z,99940.63
2022-09-12T21:56:32.956Z,99938.45
2022-09-12T21:59:05.134Z,99935.63
2022-09-12T22:01:36.988Z,99934.04
2022-09-12T22:04:09.972Z,99935.89
2022-09-12T22:06:41.749Z,99934.82
2022-09-12T22:09:14.134Z,99933.39
2022-09-12T22:11:46.133Z,99941.34
2022-09-12T22:14:18.180Z,99944.09
2022-09-12T22:16:50.457Z,99944.08
2022-09-12T22:19:22.516Z,99942.52
2022-09-12T22:22:12.321Z,99946.48
2022-09-12T22:24:44.274Z,99944.70
2022-09-12T22:27:16.127Z,99944.48
2022-09-12T22:29:50.658Z,99937.30
2022-09-12T22:32:23.072Z,99935.35
2022-09-12T22:34:54.913Z,99933.05
2022-09-12T22:37:26.710Z,99933.52
2022-09-12T22:39:58.641Z,99934.66
2022-09-12T22:42:31.304Z,99931.73
2022-09-12T22:45:03.116Z,99933.67
2022-09-12T22:47:34.947Z,99934.07
2022-09-12T22:50:07.910Z,99935.17
2022-09-12T22:52:39.671Z,99931.21
2022-09-12T22:55:12.151Z,99930.52
2022-09-12T22:57:43.955Z,99927.80
2022-09-12T23:00:18.175Z,99927.31
2022-09-12T23:02:50.234Z,99930.00
2022-09-12T23:05:22.091Z,99931.78
2022-09-12T23:07:55.396Z,99929.26
2022-09-12T23:10:27.649Z,99928.51
2022-09-12T23:12:59.605Z,99933.80
2022-09-12T23:15:31.428Z,99930.72
2022-09-12T23:18:05.135Z,99931.31
2022-09-12T23:20:37.281Z,99927.20
2022-09-12T23:23:09.780Z,99922.89
2022-09-12T23:25:41.660Z,99919.91
2022-09-12T23:28:14.933Z,99914.85
2022-09-12T23:30:46.807Z,99913.64
2022-09-12T23:33:18.864Z,99910.49
2022-09-12T23:35:51.025Z,99903.53
2022-09-12T23:38:22.811Z,99903.20
2022-09-12T23:40:54.927Z,99901.52
2022-09-12T23:43:27.456Z,99900.39
2022-09-12T23:45:59.706Z,99900.67
2022-09-12T23:48:32.128Z,99898.87
2022-09-12T23:51:04.676Z,99901.11
2022-09-12T23:53:36.776Z,99904.00
2022-09-12T23:56:10.685Z,99902.87
2022-09-12T23:58:42.643Z,99907.15
